Time;durP1;ratioP1;P1;durP2;ratioP2;P2;SDS_P1;SDS_P2;PMS_P1;PMS_P2;Temp;Humidity;BMP_temperature;BMP_pressure;BME280_temperature;BME280_humidity;BME280_pressure;Samples;Min_cycle;Max_cycle;Signal;HPM_P1;HPM_P2
2023/01/10 00:01:16;;;;;;;5.03;4.60;;;;;;;;;;5035550;28;20409;-87
2023/01/10 00:03:42;;;;;;;3.78;1.95;;;;;;;;;;5035317;28;20049;-87
2023/01/10 00:06:09;;;;;;;2.35;2.22;;;;;;;;;;5035665;28;20057;-88
2023/01/10 00:08:35;;;;;;;3.35;2.95;;;;;;;;;;5034913;28;20045;-88
2023/01/10 00:13:22;;;;;;;2.83;2.63;;;;;;;;;;5034895;28;20049;-88
2023/01/10 00:13:51;;;;;;;2.25;2.15;;;;;;;;;;5035270;28;20409;-88
2023/01/10 00:16:17;;;;;;;2.55;2.33;;;;;;;;;;5035517;28;20049;-88
2023/01/10 00:18:44;;;;;;;1.98;1.88;;;;;;;;;;5035239;28;20041;-88
2023/01/10 00:21:10;;;;;;;2.20;2.05;;;;;;;;;;5034665;28;20391;-88
2023/01/10 00:23:37;;;;;;;3.40;3.20;;;;;;;;;;5034999;28;20050;-88
2023/01/10 00:26:04;;;;;;;1.70;1.60;;;;;;;;;;5035386;28;20046;-89
2023/01/10 00:28:33;;;;;;;3.25;3.05;;;;;;;;;;5034709;28;20057;-88
2023/01/10 00:31:05;;;;;;;4.22;2.35;;;;;;;;;;5034912;28;20448;-88
2023/01/10 00:33:32;;;;;;;3.97;3.78;;;;;;;;;;5035072;28;20056;-88
2023/01/10 00:35:59;;;;;;;3.67;3.47;;;;;;;;;;5035140;28;20049;-88
2023/01/10 00:38:25;;;;;;;2.47;2.38;;;;;;;;;;5034577;28;20057;-87
2023/01/10 00:40:52;;;;;;;3.97;3.67;;;;;;;;;;5034499;28;20049;-88
2023/01/10 00:46:03;;;;;;;2.88;2.78;;;;;;;;;;5034742;28;20080;-88
2023/01/10 00:48:30;;;;;;;2.33;2.22;;;;;;;;;;5034804;28;20107;-89
2023/01/10 00:50:56;;;;;;;3.15;3.05;;;;;;;;;;5034804;28;20103;-88
2023/01/10 00:53:23;;;;;;;2.75;2.55;;;;;;;;;;5034428;28;20049;-88
2023/01/10 00:55:49;;;;;;;3.78;3.33;;;;;;;;;;5034713;28;20126;-88
2023/01/10 00:58:16;;;;;;;2.50;2.30;;;;;;;;;;5034519;28;20050;-87
2023/01/10 01:00:45;;;;;;;2.72;2.25;;;;;;;;;;5034297;28;20061;-87
2023/01/10 01:03:13;;;;;;;3.10;2.75;;;;;;;;;;5034259;28;20053;-87
2023/01/10 01:05:40;;;;;;;2.70;2.60;;;;;;;;;;5034389;28;20046;-88
2023/01/10 01:08:06;;;;;;;2.90;2.80;;;;;;;;;;5034060;28;20057;-87
2023/01/10 01:10:33;;;;;;;3.38;3.17;;;;;;;;;;5033817;28;20095;-88
2023/01/10 01:13:05;;;;;;;1.70;1.60;;;;;;;;;;5034244;28;20098;-87
2023/01/10 01:15:33;;;;;;;2.88;2.55;;;;;;;;;;5034264;28;20050;-88
2023/01/10 01:18:00;;;;;;;3.53;3.28;;;;;;;;;;5033836;28;20053;-88
2023/01/10 01:20:28;;;;;;;2.50;2.30;;;;;;;;;;5033852;28;20486;-87
2023/01/10 01:22:55;;;;;;;1.45;1.38;;;;;;;;;;5034115;28;20095;-87
2023/01/10 01:25:21;;;;;;;2.17;2.08;;;;;;;;;;5033710;28;20505;-88
2023/01/10 01:27:48;;;;;;;2.63;2.42;;;;;;;;;;5034152;28;20050;-88
2023/01/10 01:30:15;;;;;;;3.08;2.90;;;;;;;;;;5033679;28;20041;-88
2023/01/10 01:32:41;;;;;;;2.67;2.58;;;;;;;;;;5032625;28;20088;-88
2023/01/10 01:35:09;;;;;;;1.92;1.83;;;;;;;;;;5033551;28;20045;-88
2023/01/10 01:37:37;;;;;;;2.80;2.63;;;;;;;;;;5033745;28;20089;-88
2023/01/10 01:40:03;;;;;;;3.22;2.95;;;;;;;;;;5033341;28;20131;-88
2023/01/10 01:42:31;;;;;;;4.78;4.53;;;;;;;;;;5033592;28;20557;-88
2023/01/10 01:45:16;;;;;;;2.55;2.45;;;;;;;;;;5033637;28;20151;-89
2023/01/10 01:47:44;;;;;;;1.88;1.77;;;;;;;;;;5033456;28;20099;-88
2023/01/10 01:50:15;;;;;;;3.00;2.88;;;;;;;;;;5033558;28;20049;-88
2023/01/10 01:52:42;;;;;;;2.80;2.60;;;;;;;;;;5033385;28;20563;-88
2023/01/10 01:55:09;;;;;;;3.75;3.45;;;;;;;;;;5033186;28;20041;-89
2023/01/10 01:57:36;;;;;;;1.55;1.45;;;;;;;;;;5033284;28;20493;-88
2023/01/10 02:00:04;;;;;;;4.88;3.45;;;;;;;;;;5033150;28;20107;-88
2023/01/10 02:02:31;;;;;;;3.40;3.10;;;;;;;;;;5033462;28;20099;-88
2023/01/10 02:05:00;;;;;;;2.60;2.50;;;;;;;;;;5033440;28;20095;-88
2023/01/10 02:07:29;;;;;;;2.53;2.42;;;;;;;;;;5032973;28;20570;-88
2023/01/10 02:09:58;;;;;;;2.55;2.42;;;;;;;;;;5033019;28;20555;-88
2023/01/10 02:12:26;;;;;;;3.20;2.95;;;;;;;;;;5033388;28;20103;-87
2023/01/10 02:14:53;;;;;;;2.20;2.08;;;;;;;;;;5032891;28;20053;-88
2023/01/10 02:17:20;;;;;;;2.65;2.45;;;;;;;;;;5032987;28;20558;-88
2023/01/10 02:19:50;;;;;;;3.03;2.85;;;;;;;;;;5033195;28;20111;-88
2023/01/10 02:22:34;;;;;;;2.65;2.45;;;;;;;;;;5032872;28;20054;-88
2023/01/10 02:25:24;;;;;;;3.25;3.05;;;;;;;;;;5032807;28;20060;-88
2023/01/10 02:28:02;;;;;;;1.98;1.77;;;;;;;;;;5032853;28;20494;-88
2023/01/10 02:30:40;;;;;;;3.00;2.80;;;;;;;;;;5032769;28;20103;-88
2023/01/10 02:33:12;;;;;;;2.22;2.13;;;;;;;;;;5032617;28;20107;-88
2023/01/10 02:35:55;;;;;;;2.78;2.67;;;;;;;;;;5032863;28;20107;-87
2023/01/10 02:38:28;;;;;;;6.30;3.25;;;;;;;;;;5030100;28;20049;-88
2023/01/10 02:41:01;;;;;;;4.97;4.65;;;;;;;;;;5032931;28;20068;-88
2023/01/10 02:43:30;;;;;;;2.30;2.10;;;;;;;;;;5032138;28;20485;-87
2023/01/10 02:45:58;;;;;;;2.90;2.78;;;;;;;;;;5032806;28;20060;-88
2023/01/10 02:48:26;;;;;;;3.08;2.88;;;;;;;;;;5032617;28;20156;-87
2023/01/10 02:50:56;;;;;;;2.80;2.65;;;;;;;;;;5032770;28;20108;-88
2023/01/10 02:53:25;;;;;;;3.15;3.03;;;;;;;;;;5032337;28;20060;-87
2023/01/10 02:56:16;;;;;;;3.78;3.65;;;;;;;;;;5032411;28;20050;-88
2023/01/10 02:58:52;;;;;;;1.88;1.77;;;;;;;;;;5032305;28;20497;-88
2023/01/10 03:01:24;;;;;;;3.20;2.95;;;;;;;;;;5032383;28;20378;-88
2023/01/10 03:03:55;;;;;;;2.30;2.20;;;;;;;;;;5032663;28;20049;-88
2023/01/10 03:06:21;;;;;;;;;;;;;;;;;;5032876;28;20053;-89
2023/01/10 03:08:50;;;;;;;3.55;3.25;;;;;;;;;;5032801;28;19921;-88
2023/01/10 03:11:38;;;;;;;1.55;1.45;;;;;;;;;;5032348;28;20678;-89
2023/01/10 03:14:04;;;;;;;1.63;1.58;;;;;;;;;;5032197;28;20516;-88
2023/01/10 03:16:33;;;;;;;1.25;1.23;;;;;;;;;;5032628;28;20107;-88
2023/01/10 03:19:03;;;;;;;1.52;1.42;;;;;;;;;;5032169;28;20551;-88
2023/01/10 03:21:31;;;;;;;2.50;2.30;;;;;;;;;;5032765;28;20132;-89
2023/01/10 03:23:59;;;;;;;3.10;2.90;;;;;;;;;;5032413;28;20543;-89
2023/01/10 03:26:29;;;;;;;3.22;3.03;;;;;;;;;;5032566;28;20049;-88
2023/01/10 03:28:58;;;;;;;4.40;3.38;;;;;;;;;;5032107;28;20493;-88
2023/01/10 03:31:28;;;;;;;2.95;2.75;;;;;;;;;;5032613;28;20186;-89
2023/01/10 03:33:55;;;;;;;2.42;2.22;;;;;;;;;;5032423;28;20449;-88
2023/01/10 03:36:29;;;;;;;1.80;1.70;;;;;;;;;;5032676;28;20111;-89
2023/01/10 03:38:57;;;;;;;4.45;4.05;;;;;;;;;;5032095;28;20052;-89
2023/01/10 03:41:29;;;;;;;2.90;2.70;;;;;;;;;;5032610;28;20046;-88
2023/01/10 03:46:47;;;;;;;2.83;2.70;;;;;;;;;;5032495;28;20061;-89
2023/01/10 03:49:15;;;;;;;4.72;4.43;;;;;;;;;;5032543;28;20054;-89
2023/01/10 03:51:43;;;;;;;3.80;3.55;;;;;;;;;;5032111;28;20095;-89
2023/01/10 03:54:09;;;;;;;2.28;2.17;;;;;;;;;;5032156;28;20049;-89
2023/01/10 05:56:23;;;;;;;2.88;2.67;;;;;;;;;;5051825;28;20056;-89
2023/01/10 05:58:50;;;;;;;2.53;2.38;;;;;;;;;;5053888;28;20110;-90
2023/01/10 06:01:17;;;;;;;3.28;3.08;;;;;;;;;;5053487;28;20485;-90
2023/01/10 06:03:43;;;;;;;2.53;2.33;;;;;;;;;;5053752;28;20056;-90
2023/01/10 06:06:10;;;;;;;2.25;2.15;;;;;;;;;;5053379;28;20102;-89
2023/01/10 06:08:36;;;;;;;1.98;1.88;;;;;;;;;;5053546;28;20488;-90
2023/01/10 06:11:03;;;;;;;2.08;1.98;;;;;;;;;;5053532;28;20056;-90
2023/01/10 06:13:31;;;;;;;2.33;2.13;;;;;;;;;;5053806;28;20049;-90
2023/01/10 06:15:58;;;;;;;1.88;1.77;;;;;;;;;;5053287;28;20044;-90
2023/01/10 06:18:24;;;;;;;2.28;2.17;;;;;;;;;;5053037;28;20067;-90
2023/01/10 06:20:51;;;;;;;3.22;2.85;;;;;;;;;;5053728;28;20045;-90
2023/01/10 06:23:17;;;;;;;2.28;2.17;;;;;;;;;;5053739;28;20057;-90
2023/01/10 06:25:44;;;;;;;1.80;1.67;;;;;;;;;;5053372;28;20052;-91
2023/01/10 06:28:11;;;;;;;2.28;2.17;;;;;;;;;;5053472;28;20049;-88
2023/01/10 06:30:40;;;;;;;1.30;1.30;;;;;;;;;;5053044;28;20102;-90
2023/01/10 06:33:08;;;;;;;2.17;2.08;;;;;;;;;;5053305;28;20083;-90
2023/01/10 06:35:35;;;;;;;2.45;2.25;;;;;;;;;;5053063;28;20057;-90
2023/01/10 06:38:01;;;;;;;0.60;0.60;;;;;;;;;;5053072;28;20051;-90
2023/01/10 06:40:28;;;;;;;3.03;2.92;;;;;;;;;;5053326;28;20102;-90
2023/01/10 06:42:55;;;;;;;0.82;0.82;;;;;;;;;;5053137;28;20118;-89
2023/01/10 06:45:21;;;;;;;1.83;1.73;;;;;;;;;;5053035;28;20488;-88
2023/01/10 06:47:49;;;;;;;2.25;1.55;;;;;;;;;;5052926;28;20055;-89
2023/01/10 06:50:16;;;;;;;1.70;1.60;;;;;;;;;;5052660;28;20053;-88
2023/01/10 06:52:42;;;;;;;1.77;1.67;;;;;;;;;;5052450;28;20689;-88
2023/01/10 06:55:09;;;;;;;1.92;1.83;;;;;;;;;;5052277;28;20114;-88
2023/01/10 06:57:37;;;;;;;2.65;2.45;;;;;;;;;;5052461;28;20053;-88
2023/01/10 07:00:05;;;;;;;2.08;1.95;;;;;;;;;;5052051;28;20080;-88
2023/01/10 07:02:31;;;;;;;2.10;2.00;;;;;;;;;;5052359;28;20060;-88
2023/01/10 07:04:59;;;;;;;2.35;2.25;;;;;;;;;;5052369;28;20095;-87
2023/01/10 07:07:25;;;;;;;1.20;1.20;;;;;;;;;;5052373;28;20574;-87
2023/01/10 07:09:52;;;;;;;3.60;3.42;;;;;;;;;;5052480;28;20045;-88
2023/01/10 07:12:18;;;;;;;1.83;1.73;;;;;;;;;;5052142;28;20053;-86
2023/01/10 07:14:45;;;;;;;1.75;1.65;;;;;;;;;;5052370;28;20056;-87
2023/01/10 07:17:12;;;;;;;0.68;0.65;;;;;;;;;;5052662;28;20100;-87
2023/01/10 07:19:38;;;;;;;3.67;3.58;;;;;;;;;;5052084;28;20458;-88
2023/01/10 07:22:06;;;;;;;1.23;1.15;;;;;;;;;;5052565;28;20127;-87
2023/01/10 07:24:33;;;;;;;0.70;0.70;;;;;;;;;;5052326;28;20122;-88
2023/01/10 07:26:59;;;;;;;1.92;1.83;;;;;;;;;;5052312;28;20083;-87
2023/01/10 07:29:26;;;;;;;1.83;1.73;;;;;;;;;;5051883;28;20056;-87
2023/01/10 07:31:52;;;;;;;3.08;2.97;;;;;;;;;;5055372;28;20045;-88
2023/01/10 07:34:19;;;;;;;1.92;1.88;;;;;;;;;;5056258;28;20053;-88
2023/01/10 07:36:48;;;;;;;2.55;2.45;;;;;;;;;;5055794;28;20049;-88
2023/01/10 07:39:16;;;;;;;1.45;1.42;;;;;;;;;;5055886;28;20103;-88
2023/01/10 07:41:42;;;;;;;1.40;1.38;;;;;;;;;;5055819;28;20110;-88
2023/01/10 07:44:09;;;;;;;1.80;1.70;;;;;;;;;;5055606;28;20041;-88
2023/01/10 07:46:35;;;;;;;0.88;0.88;;;;;;;;;;5055839;28;20045;-88
2023/01/10 07:49:02;;;;;;;2.88;2.58;;;;;;;;;;5055641;28;20090;-88
2023/01/10 07:51:28;;;;;;;2.15;1.95;;;;;;;;;;5055734;28;20049;-88
2023/01/10 07:53:55;;;;;;;2.42;2.33;;;;;;;;;;5055862;28;20049;-88
2023/01/10 07:56:23;;;;;;;2.20;2.10;;;;;;;;;;5055027;28;20493;-88
2023/01/10 07:58:49;;;;;;;2.72;2.63;;;;;;;;;;5055357;28;20070;-88
2023/01/10 08:01:16;;;;;;;1.25;1.23;;;;;;;;;;5055657;28;20106;-88
2023/01/10 08:03:42;;;;;;;1.58;1.55;;;;;;;;;;5055653;28;20049;-88
2023/01/10 08:06:10;;;;;;;1.58;1.48;;;;;;;;;;5055508;28;20382;-88
2023/01/10 08:08:36;;;;;;;2.03;1.92;;;;;;;;;;5055212;28;20147;-88
2023/01/10 08:11:03;;;;;;;2.17;2.08;;;;;;;;;;5055691;28;20041;-88
2023/01/10 08:13:31;;;;;;;2.35;2.25;;;;;;;;;;5058089;28;20049;-88
2023/01/10 08:15:58;;;;;;;2.22;2.13;;;;;;;;;;5055036;28;20044;-90
2023/01/10 08:18:25;;;;;;;2.92;2.83;;;;;;;;;;5055769;28;20045;-89
2023/01/10 08:20:52;;;;;;;3.13;3.03;;;;;;;;;;5055665;28;20049;-89
2023/01/10 08:23:19;;;;;;;2.40;2.30;;;;;;;;;;5055632;28;20053;-90
2023/01/10 08:25:45;;;;;;;1.80;1.73;;;;;;;;;;5055339;28;20052;-90
2023/01/10 08:28:12;;;;;;;3.38;3.25;;;;;;;;;;5055073;28;20045;-89
2023/01/10 08:30:40;;;;;;;2.05;1.95;;;;;;;;;;5055502;28;20053;-89
2023/01/10 08:33:07;;;;;;;1.33;1.33;;;;;;;;;;5055311;28;20118;-89
2023/01/10 08:35:36;;;;;;;2.00;1.90;;;;;;;;;;5055274;28;20045;-89
2023/01/10 08:38:03;;;;;;;3.70;3.45;;;;;;;;;;5055439;28;20049;-89
2023/01/10 08:40:29;;;;;;;5.18;4.93;;;;;;;;;;5054955;28;20447;-90
2023/01/10 08:42:57;;;;;;;2.55;2.45;;;;;;;;;;5054563;28;20049;-89
2023/01/10 08:45:23;;;;;;;2.13;2.03;;;;;;;;;;5055222;28;20053;-89
2023/01/10 08:47:51;;;;;;;1.48;1.45;;;;;;;;;;5054930;28;20049;-90
2023/01/10 08:50:18;;;;;;;1.50;1.40;;;;;;;;;;5054667;28;20106;-89
2023/01/10 08:52:44;;;;;;;1.77;1.73;;;;;;;;;;5054986;28;20118;-89
2023/01/10 08:55:11;;;;;;;1.40;1.38;;;;;;;;;;5054733;28;20048;-90
2023/01/10 08:57:37;;;;;;;1.27;1.25;;;;;;;;;;5054987;28;20110;-90
2023/01/10 09:00:04;;;;;;;3.95;3.60;;;;;;;;;;5054689;28;20102;-89
2023/01/10 09:02:31;;;;;;;3.38;3.08;;;;;;;;;;5054894;28;20041;-89
2023/01/10 09:04:59;;;;;;;3.65;3.35;;;;;;;;;;5054423;28;20045;-88
2023/01/10 09:07:25;;;;;;;5.68;4.60;;;;;;;;;;5054521;28;20049;-89
2023/01/10 09:09:52;;;;;;;4.97;4.50;;;;;;;;;;5054628;28;20125;-89
2023/01/10 09:15:02;;;;;;;4.75;4.35;;;;;;;;;;5054324;28;20107;-89
2023/01/10 09:17:28;;;;;;;3.78;3.53;;;;;;;;;;5053999;28;20045;-89
2023/01/10 09:19:55;;;;;;;3.47;3.35;;;;;;;;;;5054194;28;20107;-88
2023/01/10 09:22:23;;;;;;;2.90;2.78;;;;;;;;;;5053991;28;20071;-89
2023/01/10 09:24:50;;;;;;;4.00;3.80;;;;;;;;;;5053731;28;20052;-88
2023/01/10 09:27:16;;;;;;;4.53;4.22;;;;;;;;;;5053654;28;20575;-88
2023/01/10 09:29:43;;;;;;;2.72;2.60;;;;;;;;;;5053842;28;20045;-89
2023/01/10 09:32:09;;;;;;;4.05;3.75;;;;;;;;;;5053535;28;20049;-92
2023/01/10 09:34:36;;;;;;;6.43;4.65;;;;;;;;;;5053445;28;20057;-87
2023/01/10 09:37:02;;;;;;;6.68;6.22;;;;;;;;;;5053302;28;20170;-88
2023/01/10 09:39:31;;;;;;;6.18;5.85;;;;;;;;;;5053236;28;20452;-88
2023/01/10 09:42:14;;;;;;;10.15;6.45;;;;;;;;;;5053389;28;20072;-88
2023/01/10 09:44:41;;;;;;;;;;;;;;;;;;5053655;28;20063;-87
2023/01/10 09:47:12;;;;;;;7.05;6.55;;;;;;;;;;5052870;28;19971;-88
2023/01/10 09:49:44;;;;;;;8.27;7.60;;;;;;;;;;5053409;28;20079;-88
2023/01/10 09:52:10;;;;;;;;;;;;;;;;;;5053137;28;20105;-87
2023/01/10 09:54:40;;;;;;;6.45;5.93;;;;;;;;;;5051835;28;20376;-88
2023/01/10 09:57:12;;;;;;;8.48;7.75;;;;;;;;;;5053344;28;20060;-88
2023/01/10 09:59:40;;;;;;;7.05;6.47;;;;;;;;;;5052644;28;20049;-88
2023/01/10 10:02:15;;;;;;;7.85;7.22;;;;;;;;;;5053069;28;20095;-88
2023/01/10 10:04:41;;;;;;;8.30;7.53;;;;;;;;;;5052856;28;20053;-87
2023/01/10 10:07:11;;;;;;;8.80;8.23;;;;;;;;;;5052688;28;20060;-87
2023/01/10 10:09:40;;;;;;;6.93;6.53;;;;;;;;;;5052889;28;20053;-88
2023/01/10 10:12:17;;;;;;;6.18;5.72;;;;;;;;;;5041191;28;20053;-87
2023/01/10 10:14:51;;;;;;;8.68;8.23;;;;;;;;;;5037718;28;20115;-87
2023/01/10 10:17:26;;;;;;;4.43;4.20;;;;;;;;;;5032546;28;20054;-88
2023/01/10 10:19:58;;;;;;;6.10;5.60;;;;;;;;;;5032651;28;20050;-87
2023/01/10 10:22:27;;;;;;;5.80;5.50;;;;;;;;;;5032914;28;20456;-88
2023/01/10 10:24:59;;;;;;;5.00;4.57;;;;;;;;;;5041692;28;20045;-87
2023/01/10 10:27:35;;;;;;;5.30;4.85;;;;;;;;;;5052486;28;20098;-87
2023/01/10 10:30:13;;;;;;;3.33;3.13;;;;;;;;;;5052971;28;20045;-87
2023/01/10 10:32:50;;;;;;;4.65;4.35;;;;;;;;;;5052755;28;20044;-87
2023/01/10 10:35:23;;;;;;;3.50;3.25;;;;;;;;;;5052594;28;20102;-87
2023/01/10 10:37:51;;;;;;;3.78;3.47;;;;;;;;;;5039743;28;20045;-87
2023/01/10 10:40:21;;;;;;;4.80;4.40;;;;;;;;;;5032289;28;20101;-88
2023/01/10 10:42:49;;;;;;;2.63;2.42;;;;;;;;;;5032191;28;20049;-88
2023/01/10 10:45:18;;;;;;;4.65;4.25;;;;;;;;;;5032174;28;20049;-88
2023/01/10 10:47:48;;;;;;;3.28;3.03;;;;;;;;;;5032190;28;20497;-88
2023/01/10 10:50:18;;;;;;;3.03;2.83;;;;;;;;;;5032429;28;20095;-87
2023/01/10 10:52:45;;;;;;;2.70;2.60;;;;;;;;;;5032522;28;20045;-88
2023/01/10 10:55:15;;;;;;;7.63;5.55;;;;;;;;;;5032580;28;20057;-88
2023/01/10 10:57:45;;;;;;;8.27;5.50;;;;;;;;;;5032631;28;20050;-88
2023/01/10 11:00:14;;;;;;;5.13;4.63;;;;;;;;;;5032331;28;20060;-88
2023/01/10 11:02:43;;;;;;;4.03;3.72;;;;;;;;;;5032708;28;20050;-88
2023/01/10 11:05:15;;;;;;;6.72;5.07;;;;;;;;;;5034327;28;20432;-88
2023/01/10 11:07:42;;;;;;;5.45;5.05;;;;;;;;;;5036366;28;20105;-88
2023/01/10 11:13:02;;;;;;;6.85;6.18;;;;;;;;;;5031272;28;20156;-88
2023/01/10 11:15:35;;;;;;;5.55;5.15;;;;;;;;;;5036198;28;20481;-88
2023/01/10 11:18:04;;;;;;;3.30;3.13;;;;;;;;;;5036541;28;20049;-88
2023/01/10 11:20:31;;;;;;;8.90;4.18;;;;;;;;;;5050492;28;20053;-89
2023/01/10 11:22:58;;;;;;;4.97;3.50;;;;;;;;;;5058897;28;20052;-89
2023/01/10 11:25:24;;;;;;;3.17;2.83;;;;;;;;;;5056480;28;20559;-89
2023/01/10 11:27:52;;;;;;;3.17;2.92;;;;;;;;;;5053844;28;20041;-89
2023/01/10 11:30:21;;;;;;;1.67;1.58;;;;;;;;;;5055803;28;20497;-89
2023/01/10 11:32:51;;;;;;;4.32;3.92;;;;;;;;;;5056142;28;20041;-89
2023/01/10 11:35:20;;;;;;;3.33;3.13;;;;;;;;;;5056163;28;20056;-89
2023/01/10 11:37:58;;;;;;;3.35;3.05;;;;;;;;;;5055853;28;20056;-90
2023/01/10 11:40:26;;;;;;;8.93;6.20;;;;;;;;;;5055719;28;20415;-89
2023/01/10 11:42:54;;;;;;;5.93;5.45;;;;;;;;;;5056022;28;20106;-89
2023/01/10 11:45:24;;;;;;;5.68;3.80;;;;;;;;;;5039915;28;20088;-89
2023/01/10 11:48:03;;;;;;;4.80;4.47;;;;;;;;;;5040383;28;20049;-90
2023/01/10 11:50:32;;;;;;;4.22;4.00;;;;;;;;;;5039513;28;20099;-89
2023/01/10 11:52:59;;;;;;;5.03;4.63;;;;;;;;;;5035404;28;20547;-89
2023/01/10 11:55:26;;;;;;;3.60;3.30;;;;;;;;;;5043760;28;20110;-89
2023/01/10 11:57:58;;;;;;;4.10;3.88;;;;;;;;;;5055634;28;20053;-89
2023/01/10 12:00:32;;;;;;;4.25;3.95;;;;;;;;;;5055628;28;20103;-89
2023/01/10 12:03:00;;;;;;;4.78;3.33;;;;;;;;;;5055589;28;20052;-89
2023/01/10 12:05:26;;;;;;;3.17;2.97;;;;;;;;;;5055645;28;20095;-89
2023/01/10 12:07:53;;;;;;;4.65;4.25;;;;;;;;;;5055073;28;20107;-89
2023/01/10 12:10:21;;;;;;;6.32;5.70;;;;;;;;;;5055302;28;20052;-89
2023/01/10 12:12:53;;;;;;;5.25;3.90;;;;;;;;;;5055296;28;20049;-89
2023/01/10 12:15:24;;;;;;;5.15;4.75;;;;;;;;;;5054976;28;20049;-90
2023/01/10 12:17:52;;;;;;;4.80;4.47;;;;;;;;;;5054994;28;20045;-89
2023/01/10 12:20:19;;;;;;;6.22;5.82;;;;;;;;;;5049000;28;20099;-89
2023/01/10 12:22:47;;;;;;;4.88;4.57;;;;;;;;;;5034917;28;20049;-89
2023/01/10 12:25:16;;;;;;;4.22;3.78;;;;;;;;;;5040152;28;20087;-89
2023/01/10 12:27:45;;;;;;;4.95;4.65;;;;;;;;;;5054759;28;20048;-90
2023/01/10 12:30:14;;;;;;;3.17;2.97;;;;;;;;;;5055007;28;20052;-89
2023/01/10 12:32:42;;;;;;;4.30;4.00;;;;;;;;;;5054811;28;20496;-89
2023/01/10 12:35:14;;;;;;;4.38;4.03;;;;;;;;;;5054886;28;20416;-89
2023/01/10 12:37:41;;;;;;;5.00;4.70;;;;;;;;;;5055007;28;20053;-89
2023/01/10 12:40:11;;;;;;;4.38;3.97;;;;;;;;;;5054675;28;20052;-89
2023/01/10 12:45:27;;;;;;;;;;;;;;;;;;5055208;28;20060;-89
2023/01/10 12:47:56;;;;;;;4.32;4.03;;;;;;;;;;5054947;28;19924;-90
2023/01/10 12:50:28;;;;;;;5.38;4.93;;;;;;;;;;5054401;28;20045;-90
2023/01/10 12:52:58;;;;;;;3.83;3.55;;;;;;;;;;5054707;28;20053;-90
2023/01/10 12:55:27;;;;;;;4.93;4.53;;;;;;;;;;5054253;28;20060;-89
2023/01/10 12:57:56;;;;;;;5.07;4.72;;;;;;;;;;5054434;28;20099;-90
2023/01/10 13:00:24;;;;;;;5.50;5.00;;;;;;;;;;5054775;28;20049;-91
2023/01/10 13:02:52;;;;;;;3.80;3.53;;;;;;;;;;5055079;28;20067;-91
2023/01/10 13:05:20;;;;;;;3.83;3.63;;;;;;;;;;5055018;28;20102;-90
2023/01/10 13:07:49;;;;;;;6.45;6.00;;;;;;;;;;5054628;28;20049;-91
2023/01/10 13:10:17;;;;;;;9.23;6.80;;;;;;;;;;5051754;28;20042;-91
2023/01/10 13:12:45;;;;;;;3.63;3.15;;;;;;;;;;5034893;28;20050;-91
2023/01/10 13:15:15;;;;;;;5.90;4.45;;;;;;;;;;5037012;28;20053;-91
2023/01/10 13:17:44;;;;;;;3.50;3.22;;;;;;;;;;5054519;28;20049;-91
2023/01/10 13:20:34;;;;;;;9.18;8.43;;;;;;;;;;5052493;28;20460;-91
2023/01/10 13:23:12;;;;;;;6.45;5.90;;;;;;;;;;5019378;28;20041;-92
2023/01/10 13:25:38;;;;;;;3.42;3.22;;;;;;;;;;5039892;28;20106;-92
2023/01/10 13:28:06;;;;;;;2.45;2.35;;;;;;;;;;5055257;28;20485;-91
2023/01/10 13:30:33;;;;;;;6.85;6.20;;;;;;;;;;5055861;28;20174;-90
2023/01/10 13:33:02;;;;;;;3.38;3.17;;;;;;;;;;5051741;28;20429;-91
2023/01/10 13:35:37;;;;;;;3.92;3.67;;;;;;;;;;5035078;28;20053;-91
2023/01/10 13:38:05;;;;;;;4.55;4.35;;;;;;;;;;5034656;28;20112;-91
2023/01/10 13:40:31;;;;;;;15.48;8.95;;;;;;;;;;5032485;28;20398;-92
2023/01/10 13:43:18;;;;;;;4.18;3.95;;;;;;;;;;5034809;28;20107;-91
2023/01/10 13:45:45;;;;;;;4.07;3.38;;;;;;;;;;5034560;28;20180;-91
2023/01/10 13:48:25;;;;;;;3.38;3.17;;;;;;;;;;5034572;28;20103;-91
2023/01/10 13:51:06;;;;;;;2.72;1.75;;;;;;;;;;5034451;28;20049;-91
2023/01/10 13:53:45;;;;;;;1.23;1.20;;;;;;;;;;5034216;28;20136;-91
2023/01/10 13:56:34;;;;;;;2.30;2.20;;;;;;;;;;5034908;28;20055;-90
2023/01/10 14:04:35;;;;;;;3.92;3.72;;;;;;;;;;5034519;28;20104;-89
2023/01/10 14:07:04;;;;;;;3.10;2.90;;;;;;;;;;5034380;28;20049;-91
2023/01/10 14:09:38;;;;;;;1.98;1.88;;;;;;;;;;5033721;28;20059;-90
2023/01/10 14:12:07;;;;;;;2.30;2.20;;;;;;;;;;5048844;28;20128;-90
2023/01/10 14:14:36;;;;;;;2.70;2.50;;;;;;;;;;5053559;28;20548;-90
2023/01/10 14:17:14;;;;;;;2.63;2.53;;;;;;;;;;5053963;28;20044;-91
2023/01/10 14:19:42;;;;;;;1.77;1.70;;;;;;;;;;5053771;28;20132;-92
2023/01/10 14:22:22;;;;;;;1.17;1.15;;;;;;;;;;5038661;28;20049;-89
2023/01/10 14:24:52;;;;;;;2.15;2.05;;;;;;;;;;5033502;28;20519;-90
2023/01/10 14:27:19;;;;;;;3.28;3.08;;;;;;;;;;5033777;28;20133;-91
2023/01/10 14:29:48;;;;;;;3.28;2.28;;;;;;;;;;5033793;28;20045;-91
2023/01/10 14:32:18;;;;;;;3.47;2.85;;;;;;;;;;5048342;28;20045;-89
2023/01/10 14:34:45;;;;;;;3.95;3.47;;;;;;;;;;5053725;28;20045;-90
2023/01/10 14:37:15;;;;;;;5.70;5.35;;;;;;;;;;5037135;28;20037;-91
2023/01/10 14:39:43;;;;;;;5.38;3.88;;;;;;;;;;5032860;28;20053;-92
2023/01/10 14:42:14;;;;;;;2.65;2.50;;;;;;;;;;5033644;28;20057;-91
2023/01/10 14:44:44;;;;;;;5.10;4.80;;;;;;;;;;5033477;28;20203;-91
2023/01/10 14:47:26;;;;;;;2.55;2.45;;;;;;;;;;5033333;28;20068;-91
2023/01/10 14:49:54;;;;;;;4.05;3.72;;;;;;;;;;5033106;28;20099;-91
2023/01/10 14:52:22;;;;;;;3.58;3.38;;;;;;;;;;5032986;28;20089;-91
2023/01/10 14:54:54;;;;;;;2.20;2.10;;;;;;;;;;5033239;28;20413;-90
2023/01/10 14:57:23;;;;;;;2.85;2.65;;;;;;;;;;5033337;28;20107;-91
2023/01/10 14:59:50;;;;;;;3.60;2.92;;;;;;;;;;5033360;28;20111;-90
2023/01/10 15:02:22;;;;;;;4.88;4.47;;;;;;;;;;5032898;28;20049;-90
2023/01/10 15:04:52;;;;;;;4.45;4.05;;;;;;;;;;5033086;28;20509;-91
2023/01/10 15:07:21;;;;;;;2.95;2.75;;;;;;;;;;5033227;28;20050;-91
2023/01/10 15:09:48;;;;;;;4.90;4.60;;;;;;;;;;5033112;28;20056;-92
2023/01/10 15:12:15;;;;;;;2.97;2.78;;;;;;;;;;5033047;28;20137;-92
2023/01/10 15:14:43;;;;;;;3.45;3.03;;;;;;;;;;5032943;28;20045;-92
2023/01/10 15:17:16;;;;;;;6.63;4.20;;;;;;;;;;5033191;28;20057;-91
2023/01/10 15:19:43;;;;;;;3.95;3.70;;;;;;;;;;5032919;28;20060;-92
2023/01/10 15:22:25;;;;;;;3.85;3.65;;;;;;;;;;5033383;28;20099;-92
2023/01/10 15:25:02;;;;;;;3.95;3.75;;;;;;;;;;5033207;28;20041;-91
2023/01/10 15:27:29;;;;;;;2.92;2.72;;;;;;;;;;5032937;28;20417;-91
2023/01/10 15:29:57;;;;;;;4.25;3.95;;;;;;;;;;5033209;28;20075;-91
2023/01/10 15:32:26;;;;;;;2.50;2.40;;;;;;;;;;5033035;28;20057;-91
2023/01/10 15:34:54;;;;;;;2.58;2.45;;;;;;;;;;5033095;28;20099;-91
2023/01/10 15:37:22;;;;;;;3.35;2.35;;;;;;;;;;5033141;28;20398;-91
2023/01/10 15:39:48;;;;;;;2.83;2.55;;;;;;;;;;5033291;28;20045;-91
2023/01/10 15:42:15;;;;;;;3.10;2.90;;;;;;;;;;5032600;28;20108;-91
2023/01/10 15:44:43;;;;;;;4.50;4.30;;;;;;;;;;5032366;28;20402;-91
2023/01/10 15:47:34;;;;;;;3.83;1.63;;;;;;;;;;5032363;28;20053;-91
2023/01/10 15:50:01;;;;;;;2.05;1.95;;;;;;;;;;5032161;28;20049;-92
2023/01/10 15:52:27;;;;;;;2.25;2.15;;;;;;;;;;5034558;28;20057;-92
2023/01/10 15:54:55;;;;;;;1.90;1.73;;;;;;;;;;5035902;28;20057;-92
2023/01/10 15:57:26;;;;;;;1.55;1.45;;;;;;;;;;5035870;28;20089;-92
2023/01/10 15:59:53;;;;;;;2.03;1.92;;;;;;;;;;5035612;28;20123;-93
2023/01/10 16:02:24;;;;;;;1.98;1.88;;;;;;;;;;5035894;28;20527;-92
2023/01/10 16:04:54;;;;;;;3.00;2.80;;;;;;;;;;5035806;28;20045;-92
2023/01/10 16:07:22;;;;;;;2.35;2.15;;;;;;;;;;5035737;28;20049;-92
2023/01/10 16:09:54;;;;;;;2.40;2.20;;;;;;;;;;5035775;28;20077;-92
2023/01/10 16:15:14;;;;;;;2.75;2.55;;;;;;;;;;5035865;28;20052;-91
2023/01/10 16:17:40;;;;;;;3.58;3.38;;;;;;;;;;5036135;28;20057;-91
2023/01/10 16:20:12;;;;;;;4.68;4.35;;;;;;;;;;5042473;28;20057;-92
2023/01/10 16:22:39;;;;;;;4.80;4.40;;;;;;;;;;5049956;28;20076;-91
2023/01/10 16:25:06;;;;;;;4.18;3.92;;;;;;;;;;5050250;28;20065;-92
2023/01/10 16:27:32;;;;;;;5.50;5.00;;;;;;;;;;5049276;28;20065;-94
2023/01/10 16:29:59;;;;;;;6.93;6.53;;;;;;;;;;5046405;28;20436;-93
2023/01/10 16:32:25;;;;;;;3.67;3.38;;;;;;;;;;5061862;28;20049;-92
2023/01/10 16:34:52;;;;;;;5.35;4.85;;;;;;;;;;5074227;28;20102;-92
2023/01/10 16:37:20;;;;;;;4.53;4.18;;;;;;;;;;5070974;28;20095;-92
2023/01/10 16:39:46;;;;;;;8.50;6.57;;;;;;;;;;5055397;28;20162;-92
2023/01/10 16:44:57;;;;;;;5.38;4.57;;;;;;;;;;5044381;28;20060;-92
2023/01/10 16:47:23;;;;;;;4.90;4.07;;;;;;;;;;5035500;28;20049;-92
2023/01/10 16:49:50;;;;;;;3.85;3.17;;;;;;;;;;5035766;28;20091;-92
2023/01/10 16:52:16;;;;;;;4.88;3.20;;;;;;;;;;5035611;28;20061;-92
2023/01/10 16:54:44;;;;;;;4.90;3.80;;;;;;;;;;5035437;28;20097;-91
2023/01/10 16:57:11;;;;;;;4.32;3.97;;;;;;;;;;5035570;28;20085;-93
2023/01/10 16:59:38;;;;;;;3.78;3.50;;;;;;;;;;5034884;28;20088;-93
2023/01/10 17:05:00;;;;;;;3.38;3.17;;;;;;;;;;5034289;28;20140;-93
2023/01/10 17:07:27;;;;;;;8.40;4.85;;;;;;;;;;5034295;28;20127;-92
2023/01/10 17:09:56;;;;;;;7.78;7.13;;;;;;;;;;5035284;28;20053;-93
2023/01/10 17:12:23;;;;;;;3.42;3.20;;;;;;;;;;5034997;28;20551;-92
2023/01/10 17:14:50;;;;;;;5.22;4.82;;;;;;;;;;5035326;28;20049;-92
2023/01/10 17:17:16;;;;;;;5.20;4.88;;;;;;;;;;5035045;28;20803;-92
2023/01/10 17:19:43;;;;;;;6.28;5.80;;;;;;;;;;5034736;28;20056;-92
2023/01/10 17:22:09;;;;;;;3.45;3.15;;;;;;;;;;5034762;28;20512;-92